createdAt,value
2022-10-24T00:01:11.523Z,160.07
2022-10-24T00:03:38.812Z,272.77
2022-10-24T00:06:07.644Z,218.60
2022-10-24T00:08:38.470Z,231.70
2022-10-24T00:11:15.282Z,179.55
2022-10-24T00:13:42.763Z,115.45
2022-10-24T00:16:10.489Z,165.93
2022-10-24T00:18:37.821Z,399.05
2022-10-24T00:21:05.501Z,722.55
2022-10-24T00:23:32.419Z,508.50
2022-10-24T00:26:04.384Z,759.10
2022-10-24T00:28:33.946Z,406.13
2022-10-24T00:31:01.543Z,539.25
2022-10-24T00:33:28.516Z,110.78
2022-10-24T00:35:55.577Z,507.52
2022-10-24T00:38:22.773Z,157.02
2022-10-24T00:40:50.046Z,275.55
2022-10-24T00:43:21.635Z,155.07
2022-10-24T00:46:02.585Z,68.22
2022-10-24T00:48:52.780Z,75.75
2022-10-24T00:51:29.129Z,167.18
2022-10-24T00:54:07.549Z,80.30
2022-10-24T00:56:42.127Z,105.78
2022-10-24T00:59:09.780Z,135.70
2022-10-24T01:01:38.409Z,145.20
2022-10-24T01:04:06.929Z,150.10
2022-10-24T01:06:55.361Z,226.60
2022-10-24T01:09:38.712Z,257.33
2022-10-24T01:12:30.588Z,334.10
2022-10-24T01:15:22.833Z,239.13
2022-10-24T01:20:43.003Z,213.45
2022-10-24T01:23:31.809Z,171.63
2022-10-24T01:26:36.199Z,379.80
2022-10-24T01:29:37.191Z,363.92
2022-10-24T01:32:25.399Z,174.23
2022-10-24T01:34:57.521Z,408.13
2022-10-24T01:37:46.884Z,491.55
2022-10-24T01:40:21.477Z,812.03
2022-10-24T01:42:49.866Z,717.58
2022-10-24T01:45:22.872Z,1042.30
2022-10-24T01:47:53.788Z,846.20
2022-10-24T01:50:22.776Z,880.05
2022-10-24T01:52:50.178Z,336.92
2022-10-24T01:55:17.203Z,380.75
2022-10-24T01:57:44.112Z,216.93
2022-10-24T02:00:18.386Z,341.67
2022-10-24T02:02:53.698Z,440.10
2022-10-24T02:05:30.083Z,203.60
2022-10-24T02:08:03.347Z,521.45
2022-10-24T02:10:36.065Z,1021.10
2022-10-24T02:13:12.538Z,732.70
2022-10-24T02:15:45.710Z,972.33
2022-10-24T02:18:13.127Z,1086.63
2022-10-24T02:20:51.398Z,1150.88
2022-10-24T02:23:30.818Z,827.78
2022-10-24T02:26:00.978Z,962.58
2022-10-24T02:28:31.778Z,1204.82
2022-10-24T02:31:21.922Z,450.25
2022-10-24T02:33:49.921Z,931.15
2022-10-24T02:36:19.809Z,976.00
2022-10-24T02:38:48.106Z,1025.88
2022-10-24T02:41:25.645Z,1121.32
2022-10-24T02:43:53.449Z,899.28
2022-10-24T02:46:21.239Z,1029.53
2022-10-24T02:48:52.120Z,1067.60
2022-10-24T02:51:21.200Z,991.30
2022-10-24T02:53:50.220Z,1009.97
2022-10-24T02:56:17.455Z,827.45
2022-10-24T02:58:44.456Z,1069.95
2022-10-24T03:01:11.700Z,733.03
2022-10-24T03:03:38.796Z,726.80
2022-10-24T03:06:06.121Z,875.15
2022-10-24T03:08:33.181Z,1163.20
2022-10-24T03:11:00.321Z,864.13
2022-10-24T03:13:27.338Z,1083.13
2022-10-24T03:15:54.300Z,1059.10
2022-10-24T03:18:21.318Z,805.10
2022-10-24T03:20:48.380Z,808.10
2022-10-24T03:23:16.637Z,955.05
2022-10-24T03:25:43.650Z,1018.35
2022-10-24T03:28:10.540Z,998.85
2022-10-24T03:30:37.510Z,780.08
2022-10-24T03:33:04.488Z,791.88
2022-10-24T03:35:31.388Z,873.78
2022-10-24T03:37:58.729Z,716.22
2022-10-24T03:40:25.681Z,666.30
2022-10-24T03:42:52.599Z,734.70
2022-10-24T03:45:19.578Z,766.22
2022-10-24T03:47:46.462Z,973.60
2022-10-24T03:50:13.492Z,1009.70
2022-10-24T03:52:40.539Z,924.35
2022-10-24T03:55:08.089Z,866.85
2022-10-24T03:57:35.293Z,751.75
2022-10-24T04:00:02.526Z,672.60
2022-10-24T04:02:33.479Z,416.47
2022-10-24T04:05:01.381Z,731.22
2022-10-24T04:07:28.437Z,631.70
2022-10-24T04:09:55.837Z,652.05
2022-10-24T04:12:23.377Z,599.78
2022-10-24T04:14:50.440Z,551.05
2022-10-24T04:17:17.578Z,588.85
2022-10-24T04:19:44.637Z,618.65
2022-10-24T04:22:11.727Z,560.80
2022-10-24T04:24:39.501Z,680.10
2022-10-24T04:27:07.729Z,775.78
2022-10-24T04:29:35.436Z,727.22
2022-10-24T04:32:02.649Z,694.22
2022-10-24T04:34:29.541Z,446.65
2022-10-24T04:36:56.561Z,586.75
2022-10-24T04:39:23.397Z,496.13
2022-10-24T04:41:50.328Z,656.67
2022-10-24T04:44:17.210Z,573.70
2022-10-24T04:46:47.881Z,546.50
2022-10-24T04:51:42.941Z,490.25
2022-10-24T04:54:09.939Z,425.60
2022-10-24T04:56:36.852Z,386.55
2022-10-24T04:59:04.343Z,460.05
2022-10-24T05:01:31.331Z,394.13
2022-10-24T05:03:58.511Z,515.50
2022-10-24T05:06:25.509Z,372.58
2022-10-24T05:08:52.570Z,511.90
2022-10-24T05:11:19.479Z,440.52
2022-10-24T05:13:46.399Z,419.33
2022-10-24T05:16:13.430Z,459.48
2022-10-24T05:18:40.312Z,537.58
2022-10-24T05:21:07.440Z,529.55
2022-10-24T05:23:34.360Z,432.13
2022-10-24T05:26:01.420Z,549.60
2022-10-24T05:28:28.311Z,553.13
2022-10-24T05:30:55.286Z,525.90
2022-10-24T05:33:23.645Z,419.63
2022-10-24T05:35:51.742Z,374.52
2022-10-24T05:38:18.830Z,407.52
2022-10-24T05:40:49.329Z,631.03
2022-10-24T05:43:17.026Z,650.92
2022-10-24T05:45:44.400Z,774.60
2022-10-24T05:48:11.463Z,836.92
2022-10-24T05:50:38.401Z,703.50
2022-10-24T05:53:05.582Z,748.30
2022-10-24T05:55:33.719Z,894.83
2022-10-24T05:58:00.741Z,675.70
2022-10-24T06:00:27.841Z,608.63
2022-10-24T06:02:54.879Z,623.42
2022-10-24T06:05:21.927Z,602.67
2022-10-24T06:07:49.249Z,337.77
2022-10-24T06:10:16.574Z,427.88
2022-10-24T06:12:44.183Z,405.45
2022-10-24T06:15:13.759Z,425.83
2022-10-24T06:17:40.913Z,357.30
2022-10-24T06:20:08.502Z,433.33
2022-10-24T06:22:35.510Z,358.75
2022-10-24T06:25:02.615Z,396.52
2022-10-24T06:27:29.686Z,335.67
2022-10-24T06:29:56.649Z,319.48
2022-10-24T06:32:23.662Z,364.20
2022-10-24T06:34:50.954Z,394.17
2022-10-24T06:37:18.103Z,400.58
2022-10-24T06:39:45.117Z,471.08
2022-10-24T06:42:12.176Z,427.27
2022-10-24T06:44:39.078Z,405.17
2022-10-24T06:47:06.600Z,416.67
2022-10-24T06:49:33.617Z,348.50
2022-10-24T06:52:00.602Z,299.90
2022-10-24T06:54:30.141Z,287.83
2022-10-24T06:56:57.801Z,321.38
2022-10-24T06:59:24.844Z,260.20
2022-10-24T07:01:52.062Z,313.05
2022-10-24T07:04:19.458Z,259.23
2022-10-24T07:06:46.544Z,256.88
2022-10-24T07:09:15.442Z,295.15
2022-10-24T07:11:43.765Z,352.92
2022-10-24T07:14:11.277Z,295.10
2022-10-24T07:16:38.732Z,380.73
2022-10-24T07:19:05.921Z,358.08
2022-10-24T07:21:33.865Z,414.25
2022-10-24T07:24:01.403Z,331.58
2022-10-24T07:26:29.819Z,322.88
2022-10-24T07:31:32.196Z,322.30
2022-10-24T07:34:00.837Z,311.00
2022-10-24T07:36:28.338Z,323.33
2022-10-24T07:38:57.118Z,348.58
2022-10-24T07:41:25.608Z,302.17
2022-10-24T07:43:53.060Z,368.13
2022-10-24T07:46:20.327Z,264.63
2022-10-24T07:48:49.837Z,319.38
2022-10-24T07:51:17.327Z,266.95
2022-10-24T07:53:44.271Z,265.92
2022-10-24T07:56:14.543Z,211.48
2022-10-24T07:58:43.337Z,221.50
2022-10-24T08:01:13.763Z,187.50
2022-10-24T08:03:41.423Z,221.68
2022-10-24T08:06:14.178Z,240.35
2022-10-24T08:08:41.645Z,237.23
2022-10-24T08:11:14.732Z,211.38
2022-10-24T08:13:42.077Z,204.15
2022-10-24T08:16:10.569Z,191.30
2022-10-24T08:18:39.486Z,171.85
2022-10-24T08:21:10.377Z,158.30
2022-10-24T08:23:40.132Z,167.52
2022-10-24T08:26:09.247Z,161.05
2022-10-24T08:28:37.843Z,151.05
2022-10-24T08:31:07.426Z,146.43
2022-10-24T08:33:34.978Z,147.38
2022-10-24T08:36:07.806Z,131.93
2022-10-24T08:38:34.737Z,143.85
2022-10-24T08:41:01.904Z,137.77
2022-10-24T08:43:29.077Z,144.35
2022-10-24T08:46:09.506Z,144.63
2022-10-24T08:48:48.204Z,146.15
2022-10-24T08:51:43.618Z,129.00
2022-10-24T08:54:16.160Z,130.57
2022-10-24T08:56:43.328Z,129.68
2022-10-24T08:59:12.898Z,126.97
2022-10-24T09:01:44.993Z,131.15
2022-10-24T09:04:15.268Z,128.52
2022-10-24T09:06:42.458Z,124.63
2022-10-24T09:09:09.378Z,127.55
2022-10-24T09:11:52.829Z,109.45
2022-10-24T09:14:41.329Z,118.05
2022-10-24T09:17:22.299Z,117.43
2022-10-24T09:20:17.408Z,120.07
2022-10-24T09:22:45.129Z,124.22
2022-10-24T09:25:17.660Z,106.05
2022-10-24T09:27:45.538Z,108.80
2022-10-24T09:30:22.354Z,102.90
2022-10-24T09:32:49.438Z,114.05
2022-10-24T09:35:20.881Z,92.60
2022-10-24T09:38:26.572Z,104.22
2022-10-24T09:40:58.058Z,94.82
2022-10-24T09:43:43.608Z,98.05
2022-10-24T09:46:15.483Z,90.68
2022-10-24T09:51:09.419Z,92.95
2022-10-24T09:53:39.378Z,101.85
2022-10-24T09:56:18.729Z,94.13
2022-10-24T09:58:45.760Z,85.18
2022-10-24T10:01:23.033Z,82.47
2022-10-24T10:04:13.063Z,73.25
2022-10-24T10:06:53.412Z,69.70
2022-10-24T10:09:31.595Z,61.30
2022-10-24T10:12:03.145Z,62.45
2022-10-24T10:17:06.168Z,64.07
2022-10-24T10:19:37.448Z,61.45
2022-10-24T10:22:07.352Z,63.15
2022-10-24T10:24:40.600Z,62.08
2022-10-24T10:27:27.378Z,57.42
2022-10-24T10:30:13.537Z,49.20
2022-10-24T10:32:52.148Z,50.92
2022-10-24T10:35:21.338Z,50.45
2022-10-24T10:38:09.718Z,46.45
2022-10-24T10:40:47.458Z,44.05
2022-10-24T10:43:17.373Z,40.28
2022-10-24T10:45:48.260Z,70.95
2022-10-24T10:48:37.785Z,60.42
2022-10-24T10:51:39.779Z,38.65
2022-10-24T10:54:19.778Z,43.78
2022-10-24T10:56:54.468Z,43.10
2022-10-24T10:59:31.049Z,38.53
2022-10-24T11:02:20.734Z,48.72
2022-10-24T11:04:57.406Z,41.58
2022-10-24T11:07:41.287Z,40.65
2022-10-24T11:10:11.098Z,44.75
2022-10-24T11:12:45.754Z,60.72
2022-10-24T11:15:24.140Z,44.30
2022-10-24T11:18:15.127Z,35.03
2022-10-24T11:20:47.152Z,42.13
2022-10-24T11:23:24.247Z,43.03
2022-10-24T11:26:08.253Z,37.85
2022-10-24T11:29:01.748Z,27.23
2022-10-24T11:31:45.100Z,36.72
2022-10-24T11:34:19.669Z,27.63
2022-10-24T11:37:08.018Z,44.42
2022-10-24T11:39:45.216Z,29.33
2022-10-24T11:42:37.418Z,24.65
2022-10-24T11:47:50.038Z,22.20
2022-10-24T11:50:39.848Z,27.65
2022-10-24T11:53:32.779Z,33.08
2022-10-24T11:56:37.082Z,29.98
2022-10-24T11:59:07.018Z,29.20
2022-10-24T12:01:47.752Z,28.33
2022-10-24T12:04:39.748Z,34.00
2022-10-24T12:07:46.093Z,36.75
2022-10-24T12:10:38.059Z,38.22
2022-10-24T12:13:42.399Z,75.07
2022-10-24T12:16:17.078Z,64.38
2022-10-24T12:18:49.899Z,44.85
2022-10-24T12:21:26.018Z,24.45
2022-10-24T12:24:00.744Z,31.48
2022-10-24T12:26:32.220Z,34.78
2022-10-24T12:29:18.648Z,35.60
2022-10-24T12:31:45.708Z,43.95
2022-10-24T12:34:15.657Z,41.15
2022-10-24T12:37:01.077Z,32.67
2022-10-24T12:39:54.814Z,28.20
2022-10-24T12:42:25.386Z,26.42
2022-10-24T12:45:28.567Z,19.50
2022-10-24T12:50:22.400Z,26.95
2022-10-24T12:53:07.705Z,27.05
2022-10-24T12:55:39.686Z,31.58
2022-10-24T12:58:25.387Z,29.83
2022-10-24T13:01:06.763Z,33.05
2022-10-24T13:03:42.388Z,37.40
2022-10-24T13:06:13.287Z,38.38
2022-10-24T13:09:17.698Z,40.28
2022-10-24T13:12:03.099Z,50.15
2022-10-24T13:14:39.210Z,51.63
2022-10-24T13:17:12.171Z,52.38
2022-10-24T13:19:39.622Z,49.08
2022-10-24T13:22:26.872Z,51.30
2022-10-24T13:24:54.633Z,51.17
2022-10-24T13:27:28.748Z,50.83
2022-10-24T13:30:00.447Z,50.85
2022-10-24T13:32:36.089Z,50.90
2022-10-24T13:35:04.152Z,49.72
2022-10-24T13:37:34.324Z,49.88
2022-10-24T13:40:04.106Z,45.47
2022-10-24T13:42:40.159Z,45.42
2022-10-24T13:45:21.910Z,47.75
2022-10-24T13:47:52.568Z,40.38
2022-10-24T13:50:26.298Z,38.47
2022-10-24T13:53:30.563Z,36.38
2022-10-24T13:56:00.931Z,34.55
2022-10-24T13:58:27.922Z,35.28
2022-10-24T14:01:00.983Z,37.42
2022-10-24T14:03:30.041Z,37.08
2022-10-24T14:06:05.294Z,35.60
2022-10-24T14:09:02.429Z,35.67
2022-10-24T14:11:31.583Z,36.60
2022-10-24T14:14:04.062Z,32.10
2022-10-24T14:16:35.524Z,34.42
2022-10-24T14:19:25.588Z,36.22
2022-10-24T14:21:56.769Z,30.50
2022-10-24T14:24:23.818Z,32.50
2022-10-24T14:26:53.305Z,35.65
2022-10-24T14:29:32.898Z,34.63
2022-10-24T14:32:10.312Z,36.65
2022-10-24T14:34:37.856Z,34.08
2022-10-24T14:37:08.531Z,37.90
2022-10-24T14:39:36.229Z,34.72
2022-10-24T14:42:03.441Z,39.00
2022-10-24T14:44:30.572Z,36.42
2022-10-24T14:47:39.530Z,38.20
2022-10-24T14:50:45.088Z,38.78
2022-10-24T14:53:22.809Z,35.97
2022-10-24T14:55:54.465Z,36.42
2022-10-24T14:58:24.049Z,37.65
2022-10-24T15:00:51.380Z,45.53
2022-10-24T15:03:18.407Z,42.08
2022-10-24T15:06:18.769Z,40.72
2022-10-24T15:08:50.617Z,42.50
2022-10-24T15:14:05.573Z,42.83
2022-10-24T15:16:38.893Z,41.28
2022-10-24T15:19:09.790Z,44.45
2022-10-24T15:21:41.726Z,45.20
2022-10-24T15:24:25.608Z,48.10
2022-10-24T15:26:53.266Z,49.67
2022-10-24T15:29:22.630Z,44.97
2022-10-24T15:31:51.512Z,49.63
2022-10-24T15:34:21.711Z,43.13
2022-10-24T15:36:50.449Z,46.28
2022-10-24T15:39:19.634Z,47.08
2022-10-24T15:41:46.840Z,50.33
2022-10-24T15:44:19.561Z,51.97
2022-10-24T15:46:47.256Z,51.50
2022-10-24T15:49:14.708Z,46.70
2022-10-24T15:51:46.083Z,55.00
2022-10-24T15:54:17.488Z,54.25
2022-10-24T15:56:44.422Z,56.05
2022-10-24T15:59:11.362Z,54.05
2022-10-24T16:01:44.490Z,58.67
2022-10-24T16:04:11.627Z,56.90
2022-10-24T16:06:38.898Z,59.33
2022-10-24T16:09:10.429Z,54.47
2022-10-24T16:11:37.485Z,59.45
2022-10-24T16:14:05.599Z,56.40
2022-10-24T16:16:32.601Z,51.72
2022-10-24T16:18:59.648Z,56.70
2022-10-24T16:21:26.777Z,53.72
2022-10-24T16:23:55.140Z,51.25
2022-10-24T16:26:22.074Z,54.17
2022-10-24T16:28:49.095Z,60.17
2022-10-24T16:31:19.719Z,56.05
2022-10-24T16:33:47.093Z,65.63
2022-10-24T16:36:16.659Z,61.83
2022-10-24T16:38:46.624Z,58.88
2022-10-24T16:41:18.260Z,69.38
2022-10-24T16:43:49.146Z,68.40
2022-10-24T16:48:45.900Z,68.45
2022-10-24T16:51:17.928Z,60.80
2022-10-24T16:53:45.429Z,59.72
2022-10-24T16:56:14.247Z,61.60
2022-10-24T16:58:41.942Z,59.13
2022-10-24T17:01:11.236Z,58.22
2022-10-24T17:03:39.118Z,62.22
2022-10-24T17:06:06.832Z,58.30
2022-10-24T17:08:34.108Z,60.88
2022-10-24T17:11:01.725Z,64.70
2022-10-24T17:13:29.572Z,61.88
2022-10-24T17:15:57.368Z,65.47
2022-10-24T17:18:27.423Z,61.65
2022-10-24T17:21:00.504Z,63.88
2022-10-24T17:23:29.758Z,62.08
2022-10-24T17:25:59.319Z,63.20
2022-10-24T17:28:32.306Z,64.47
2022-10-24T17:31:01.509Z,63.53
2022-10-24T17:33:36.201Z,58.47
2022-10-24T17:36:07.809Z,64.18
2022-10-24T17:38:45.710Z,64.57
2022-10-24T17:41:39.399Z,65.18
2022-10-24T17:44:15.614Z,76.28
2022-10-24T17:46:44.925Z,72.95
2022-10-24T17:49:17.908Z,87.60
2022-10-24T17:51:49.645Z,79.18
2022-10-24T17:54:16.948Z,70.55
2022-10-24T17:56:44.602Z,68.28
2022-10-24T17:59:12.260Z,71.45
2022-10-24T18:01:39.431Z,70.35
2022-10-24T18:04:06.654Z,69.63
2022-10-24T18:06:33.918Z,74.22
2022-10-24T18:09:00.963Z,79.93
2022-10-24T18:11:27.868Z,80.53
2022-10-24T18:13:54.843Z,77.28
2022-10-24T18:16:22.165Z,84.55
2022-10-24T18:18:49.578Z,87.20
2022-10-24T18:21:22.022Z,85.97
2022-10-24T18:23:49.225Z,85.22
2022-10-24T18:26:21.488Z,91.53
2022-10-24T18:28:50.321Z,82.00
2022-10-24T18:31:24.049Z,89.45
2022-10-24T18:33:51.738Z,93.97
2022-10-24T18:36:25.112Z,87.15
2022-10-24T18:38:55.071Z,88.28
2022-10-24T18:41:31.029Z,81.97
2022-10-24T18:44:00.064Z,89.85
2022-10-24T18:46:28.308Z,86.15
2022-10-24T18:48:55.669Z,87.68
2022-10-24T18:51:59.884Z,84.05
2022-10-24T18:54:27.081Z,91.85
2022-10-24T18:56:54.331Z,86.63
2022-10-24T18:59:21.879Z,81.97
2022-10-24T19:02:14.018Z,90.28
2022-10-24T19:04:43.168Z,84.15
2022-10-24T19:07:10.758Z,81.88
2022-10-24T19:09:37.802Z,89.70
2022-10-24T19:12:07.111Z,89.68
2022-10-24T19:14:34.432Z,92.45
2022-10-24T19:17:03.227Z,85.95
2022-10-24T19:19:36.645Z,85.90
2022-10-24T19:22:03.792Z,86.30
2022-10-24T19:24:30.906Z,86.50
2022-10-24T19:26:57.875Z,93.25
2022-10-24T19:29:25.014Z,91.07
2022-10-24T19:31:51.991Z,84.85
2022-10-24T19:34:19.099Z,95.40
2022-10-24T19:36:46.106Z,92.38
2022-10-24T19:39:13.191Z,97.15
2022-10-24T19:41:40.616Z,92.65
2022-10-24T19:44:07.494Z,88.80
2022-10-24T19:46:34.494Z,90.55
2022-10-24T19:49:01.404Z,93.25
2022-10-24T19:51:28.303Z,89.35
2022-10-24T19:53:57.108Z,94.80
2022-10-24T19:56:26.852Z,101.13
2022-10-24T19:58:54.958Z,101.10
2022-10-24T20:01:24.213Z,99.93
2022-10-24T20:03:52.087Z,102.70
2022-10-24T20:06:19.588Z,103.43
2022-10-24T20:08:47.911Z,107.43
2022-10-24T20:11:20.551Z,103.55
2022-10-24T20:13:48.708Z,110.35
2022-10-24T20:16:15.977Z,110.25
2022-10-24T20:18:43.821Z,110.93
2022-10-24T20:21:13.378Z,104.82
2022-10-24T20:23:41.720Z,101.32
2022-10-24T20:26:11.310Z,102.32
2022-10-24T20:28:41.155Z,107.10
2022-10-24T20:31:08.154Z,99.22
2022-10-24T20:33:35.356Z,101.35
2022-10-24T20:36:02.385Z,99.70
2022-10-24T20:38:29.515Z,101.85
2022-10-24T20:41:02.027Z,101.53
2022-10-24T20:43:30.114Z,95.28
2022-10-24T20:45:57.274Z,94.93
2022-10-24T20:48:24.271Z,94.18
2022-10-24T20:50:51.224Z,95.95
2022-10-24T20:53:19.308Z,92.18
2022-10-24T20:55:46.304Z,92.07
2022-10-24T20:58:13.721Z,97.18
2022-10-24T21:03:12.303Z,102.60
2022-10-24T21:05:39.435Z,98.20
2022-10-24T21:08:06.612Z,94.13
2022-10-24T21:10:33.670Z,106.15
2022-10-24T21:13:00.612Z,104.47
2022-10-24T21:15:27.622Z,101.93
2022-10-24T21:17:54.538Z,92.00
2022-10-24T21:20:21.518Z,98.47
2022-10-24T21:22:48.451Z,93.88
2022-10-24T21:25:15.540Z,95.38
2022-10-24T21:27:42.404Z,93.68
2022-10-24T21:30:14.430Z,96.80
2022-10-24T21:32:42.391Z,85.75
2022-10-24T21:35:09.458Z,87.28
2022-10-24T21:37:36.550Z,86.10
2022-10-24T21:40:03.683Z,78.10
2022-10-24T21:42:31.451Z,78.78
2022-10-24T21:44:58.597Z,80.10
2022-10-24T21:47:25.512Z,74.93
2022-10-24T21:49:52.563Z,79.20
2022-10-24T21:52:19.480Z,74.25
2022-10-24T21:54:46.520Z,80.10
2022-10-24T21:57:13.630Z,70.88
2022-10-24T21:59:40.551Z,78.50
2022-10-24T22:02:07.811Z,68.30
2022-10-24T22:04:34.830Z,69.47
2022-10-24T22:07:02.351Z,66.72
2022-10-24T22:09:29.340Z,67.38
2022-10-24T22:11:58.069Z,64.05
2022-10-24T22:14:25.430Z,65.35
2022-10-24T22:16:52.661Z,63.95
2022-10-24T22:19:19.830Z,64.82
2022-10-24T22:21:48.975Z,67.90
2022-10-24T22:24:21.452Z,64.63
2022-10-24T22:26:49.115Z,66.22
2022-10-24T22:29:18.652Z,66.50
2022-10-24T22:31:46.721Z,64.68
2022-10-24T22:34:20.272Z,66.75
2022-10-24T22:37:17.841Z,66.25
2022-10-24T22:39:45.190Z,62.13
2022-10-24T22:42:14.921Z,59.13
2022-10-24T22:44:45.571Z,60.90
2022-10-24T22:47:31.326Z,56.75
2022-10-24T22:50:21.793Z,54.92
2022-10-24T22:52:49.847Z,59.47
2022-10-24T22:55:33.486Z,56.83
2022-10-24T22:58:00.920Z,55.35
2022-10-24T23:00:28.121Z,51.65
2022-10-24T23:03:21.084Z,55.50
2022-10-24T23:05:54.811Z,50.20
2022-10-24T23:12:11.329Z,44.63
2022-10-24T23:14:38.530Z,41.80
2022-10-24T23:17:05.782Z,42.90
2022-10-24T23:19:32.978Z,45.83
2022-10-24T23:22:24.227Z,43.75
2022-10-24T23:25:01.234Z,48.47
2022-10-24T23:27:39.792Z,38.03
2022-10-24T23:30:16.005Z,41.55
2022-10-24T23:32:43.545Z,39.70
2022-10-24T23:35:13.550Z,40.42
2022-10-24T23:37:42.898Z,44.08
2022-10-24T23:40:31.078Z,44.05
2022-10-24T23:42:58.700Z,44.92
2022-10-24T23:45:28.313Z,48.20
2022-10-24T23:48:16.232Z,44.63
2022-10-24T23:51:04.162Z,46.92
2022-10-24T23:53:53.226Z,41.78
2022-10-24T23:56:22.856Z,49.45
2022-10-24T23:58:50.368Z,46.80
